Time;durP1;ratioP1;P1;durP2;ratioP2;P2;SDS_P1;SDS_P2;PMS_P1;PMS_P2;Temp;Humidity;BMP_temperature;BMP_pressure;BME280_temperature;BME280_humidity;BME280_pressure;Samples;Min_cycle;Max_cycle;Signal;HPM_P1;HPM_P2
2021/11/28 00:01:43;;;;;;;;;;;;;;;2.74;100.00;98151.72;5038270;28;19924;-91
2021/11/28 00:04:13;;;;;;;;;;;;;;;2.73;100.00;98153.69;5022299;28;19925;-90
2021/11/28 00:06:51;;;;;;;;;;;;;;;2.40;100.00;98161.50;5039517;28;19924;-90
2021/11/28 00:09:32;;;;;;;;;;;;;;;2.40;100.00;98156.00;5038713;28;19967;-90
2021/11/28 00:12:11;;;;;;;;;;;;;;;2.10;100.00;98158.28;5038960;28;19980;-90
2021/11/28 00:14:40;;;;;;;;;;;;;;;2.04;100.00;98170.88;5022362;28;19929;-90
2021/11/28 00:17:08;;;;;;;;;;;;;;;2.08;100.00;98163.41;5038236;28;19939;-90
2021/11/28 00:19:36;;;;;;;;;;;;;;;2.26;100.00;98158.75;5022004;28;20020;-89
2021/11/28 00:22:04;;;;;;;;;;;;;;;1.94;100.00;98161.38;5022434;28;19924;-90
2021/11/28 00:24:35;;;;;;;;;;;;;;;1.72;100.00;98154.22;5022139;28;20379;-89
2021/11/28 00:27:03;;;;;;;;;;;;;;;2.06;100.00;98147.25;5038558;28;20381;-90
2021/11/28 00:29:31;;;;;;;;;;;;;;;2.39;100.00;98138.69;5054309;28;19959;-91
2021/11/28 00:31:58;;;;;;;;;;;;;;;2.58;100.00;98145.78;5037852;28;19931;-91
2021/11/28 00:34:26;;;;;;;;;;;;;;;2.15;100.00;98158.69;5021359;28;19925;-90
2021/11/28 00:36:55;;;;;;;;;;;;;;;2.26;100.00;98156.00;5054948;28;19925;-90
2021/11/28 00:39:22;;;;;;;;;;;;;;;2.45;100.00;98156.41;5021563;28;19925;-90
2021/11/28 00:41:49;;;;;;;;;;;;;;;2.22;100.00;98155.19;5038130;28;19935;-91
2021/11/28 00:44:27;;;;;;;;;;;;;;;1.84;100.00;98157.44;5039367;28;19925;-87
2021/11/28 00:46:55;;;;;;;;;;;;;;;2.21;100.00;98154.41;5038229;28;19929;-88
2021/11/28 00:49:25;;;;;;;;;;;;;;;1.63;100.00;98149.09;5053515;28;19948;-87
2021/11/28 00:51:56;;;;;;;;;;;;;;;1.83;100.00;98153.09;5037238;28;20436;-87
2021/11/28 00:54:25;;;;;;;;;;;;;;;1.88;100.00;98162.16;5020664;28;19925;-88
2021/11/28 00:56:52;;;;;;;;;;;;;;;1.58;100.00;98143.94;5053754;28;19933;-87
2021/11/28 00:59:20;;;;;;;;;;;;;;;1.50;100.00;98145.06;5037273;28;19933;-87
2021/11/28 01:01:50;;;;;;;;;;;;;;;1.48;100.00;98155.69;5036890;28;19968;-87
2021/11/28 01:04:17;;;;;;;;;;;;;;;1.69;100.00;98161.31;5015839;28;19993;-87
2021/11/28 01:06:45;;;;;;;;;;;;;;;1.81;100.00;98154.66;5014113;28;20430;-87
2021/11/28 01:09:13;;;;;;;;;;;;;;;2.35;100.00;98131.59;5030325;28;19926;-87
2021/11/28 01:11:40;;;;;;;;;;;;;;;2.15;100.00;98130.38;4997321;28;19973;-86
2021/11/28 01:14:08;;;;;;;;;;;;;;;2.08;100.00;98141.34;4997414;28;19925;-85
2021/11/28 01:16:36;;;;;;;;;;;;;;;2.41;100.00;98130.03;4997059;28;20376;-87
2021/11/28 01:19:04;;;;;;;;;;;;;;;2.35;100.00;98148.13;5013818;28;19975;-87
2021/11/28 01:21:32;;;;;;;;;;;;;;;2.06;100.00;98127.19;5013702;28;19926;-87
2021/11/28 01:23:59;;;;;;;;;;;;;;;1.98;100.00;98131.91;4997162;28;19948;-86
2021/11/28 01:26:31;;;;;;;;;;;;;;;2.30;100.00;98130.00;4997237;28;19926;-87
2021/11/28 01:28:59;;;;;;;;;;;;;;;2.48;100.00;98130.03;4997842;28;19953;-87
2021/11/28 01:31:28;;;;;;;;;;;;;;;1.94;100.00;98133.84;5029714;28;19926;-87
2021/11/28 01:33:56;;;;;;;;;;;;;;;1.67;100.00;98127.84;4997441;28;19926;-86
2021/11/28 01:36:24;;;;;;;;;;;;;;;2.23;100.00;98120.94;5029921;28;19926;-87
2021/11/28 01:38:52;;;;;;;;;;;;;;;2.23;100.00;98134.72;4997498;28;20288;-87
2021/11/28 01:41:20;;;;;;;;;;;;;;;2.25;100.00;98138.66;5013216;28;19980;-88
2021/11/28 01:43:51;;;;;;;;;;;;;;;1.94;100.00;98122.06;4997199;28;20343;-87
2021/11/28 01:46:20;;;;;;;;;;;;;;;1.93;100.00;98113.00;4996908;28;19979;-87
2021/11/28 01:48:47;;;;;;;;;;;;;;;2.06;100.00;98130.72;5012945;28;19925;-87
2021/11/28 01:51:14;;;;;;;;;;;;;;;1.88;100.00;98109.84;4996880;28;19933;-86
2021/11/28 01:53:42;;;;;;;;;;;;;;;1.86;100.00;98132.25;5013067;28;20277;-86
2021/11/28 01:56:10;;;;;;;;;;;;;;;1.69;100.00;98116.44;4997053;28;19926;-87
2021/11/28 01:58:39;;;;;;;;;;;;;;;1.66;100.00;98125.47;5013837;28;19976;-88
2021/11/28 02:01:10;;;;;;;;;;;;;;;1.65;100.00;98140.44;5013360;28;20016;-87
2021/11/28 02:03:40;;;;;;;;;;;;;;;1.83;100.00;98146.81;5013363;28;19932;-88
2021/11/28 02:06:11;;;;;;;;;;;;;;;1.47;100.00;98131.31;5013013;28;19925;-88
2021/11/28 02:08:40;;;;;;;;;;;;;;;1.51;100.00;98148.63;5013398;28;19925;-86
2021/11/28 02:11:08;;;;;;;;;;;;;;;1.28;100.00;98139.84;5029235;28;19925;-87
2021/11/28 02:13:36;;;;;;;;;;;;;;;1.09;100.00;98149.16;5013030;28;19932;-87
2021/11/28 02:16:08;;;;;;;;;;;;;;;1.22;100.00;98136.69;4997134;28;19964;-87
2021/11/28 02:18:36;;;;;;;;;;;;;;;1.23;100.00;98143.75;5028977;28;19941;-87
2021/11/28 02:25:32;;;;;;;;;;;;;;;1.41;100.00;98130.88;5017887;28;20015;-86
2021/11/28 02:27:59;;;;;;;;;;;;;;;1.44;100.00;98149.38;5016517;28;19925;-89
2021/11/28 02:30:27;;;;;;;;;;;;;;;1.27;100.00;98144.53;5034312;28;19929;-87
2021/11/28 02:32:59;;;;;;;;;;;;;;;1.31;100.00;98141.81;5002117;28;20336;-87
2021/11/28 02:35:27;;;;;;;;;;;;;;;1.47;100.00;98126.56;5016435;28;20395;-88
2021/11/28 02:37:55;;;;;;;;;;;;;;;1.20;100.00;98116.19;5016050;28;19926;-87
2021/11/28 02:40:23;;;;;;;;;;;;;;;0.96;100.00;98123.16;4999893;28;19936;-88
2021/11/28 02:42:52;;;;;;;;;;;;;;;0.96;100.00;98117.63;5000061;28;19925;-87
2021/11/28 02:45:21;;;;;;;;;;;;;;;0.85;100.00;98122.28;4999685;28;19926;-88
2021/11/28 02:47:49;;;;;;;;;;;;;;;1.48;100.00;98117.16;5000454;28;19929;-89
2021/11/28 02:50:17;;;;;;;;;;;;;;;1.43;100.00;98102.97;5016433;28;20288;-88
2021/11/28 02:52:54;;;;;;;;;;;;;;;1.48;100.00;98106.16;4999587;28;19925;-88
2021/11/28 02:55:26;;;;;;;;;;;;;;;1.50;100.00;98103.78;4999842;28;19973;-88
2021/11/28 02:57:55;;;;;;;;;;;;;;;1.88;100.00;98086.59;4999804;28;19947;-88
2021/11/28 03:00:23;;;;;;;;;;;;;;;1.70;100.00;98085.78;4999705;28;20455;-89
2021/11/28 03:02:51;;;;;;;;;;;;;;;2.09;100.00;98082.34;5016018;28;19933;-88
2021/11/28 03:05:24;;;;;;;;;;;;;;;1.97;100.00;98085.47;5015856;28;19926;-89
2021/11/28 03:07:53;;;;;;;;;;;;;;;2.37;100.00;98085.91;4999513;28;20448;-89
2021/11/28 03:10:32;;;;;;;;;;;;;;;1.66;100.00;98096.00;4999345;28;19964;-87
2021/11/28 03:13:00;;;;;;;;;;;;;;;1.35;100.00;98096.63;4999568;28;20347;-88
2021/11/28 03:15:28;;;;;;;;;;;;;;;1.51;100.00;98097.13;5015715;28;19931;-88
2021/11/28 03:17:59;;;;;;;;;;;;;;;1.37;100.00;98094.28;4999056;28;19926;-88
2021/11/28 03:20:28;;;;;;;;;;;;;;;1.43;100.00;98114.78;5031726;28;19926;-88
2021/11/28 03:22:57;;;;;;;;;;;;;;;1.48;100.00;98110.84;4999253;28;19926;-88
2021/11/28 03:25:25;;;;;;;;;;;;;;;1.82;100.00;98099.19;4999026;28;19926;-88
2021/11/28 03:27:52;;;;;;;;;;;;;;;1.40;100.00;98115.53;5015490;28;19929;-88
2021/11/28 03:30:22;;;;;;;;;;;;;;;1.45;100.00;98117.91;4999100;28;19926;-88
2021/11/28 03:33:22;;;;;;;;;;;;;;;2.09;100.00;98115.41;4997005;28;19925;-88
2021/11/28 03:36:05;;;;;;;;;;;;;;;1.74;100.00;98103.09;4983863;28;20293;-88
2021/11/28 03:38:34;;;;;;;;;;;;;;;2.00;100.00;98099.22;4981631;28;19934;-88
2021/11/28 03:41:04;;;;;;;;;;;;;;;1.74;100.00;98096.81;4965810;28;20309;-88
2021/11/28 03:43:34;;;;;;;;;;;;;;;1.47;100.00;98107.31;4998167;28;19930;-87
2021/11/28 03:46:01;;;;;;;;;;;;;;;1.37;100.00;98099.00;4981579;28;19931;-87
2021/11/28 03:48:29;;;;;;;;;;;;;;;1.29;100.00;98114.69;5013735;28;20022;-88
2021/11/28 03:51:01;;;;;;;;;;;;;;;1.23;100.00;98105.22;5013936;28;20452;-87
2021/11/28 03:53:29;;;;;;;;;;;;;;;1.55;100.00;98111.69;4981351;28;19932;-88
2021/11/28 03:56:00;;;;;;;;;;;;;;;1.41;100.00;98103.34;5013574;28;19925;-87
2021/11/28 03:58:28;;;;;;;;;;;;;;;1.28;100.00;98104.88;4981094;28;20025;-87
2021/11/28 04:00:57;;;;;;;;;;;;;;;1.47;100.00;98103.78;4997608;28;19933;-87
2021/11/28 04:03:24;;;;;;;;;;;;;;;1.72;100.00;98102.69;4997658;28;20435;-88
2021/11/28 04:05:53;;;;;;;;;;;;;;;1.55;100.00;98100.66;4965348;28;19932;-88
2021/11/28 04:08:21;;;;;;;;;;;;;;;1.55;100.00;98097.91;5013052;28;19925;-87
2021/11/28 04:10:50;;;;;;;;;;;;;;;1.51;100.00;98110.09;4998552;28;19925;-87
2021/11/28 04:13:24;;;;;;;;;;;;;;;1.15;100.00;98089.84;5000234;28;19996;-88
2021/11/28 04:15:52;;;;;;;;;;;;;;;1.15;100.00;98092.59;5014635;28;19929;-87
2021/11/28 04:18:22;;;;;;;;;;;;;;;1.47;100.00;98087.28;4998822;28;19930;-89
2021/11/28 04:20:50;;;;;;;;;;;;;;;1.02;100.00;98083.09;5014216;28;19925;-87
2021/11/28 04:23:18;;;;;;;;;;;;;;;0.95;100.00;98077.56;5014464;28;20016;-87
2021/11/28 04:25:48;;;;;;;;;;;;;;;0.97;100.00;98079.94;5014012;28;19925;-87
2021/11/28 04:28:16;;;;;;;;;;;;;;;0.85;100.00;98077.50;5014026;28;20028;-87
2021/11/28 04:30:44;;;;;;;;;;;;;;;1.08;100.00;98087.06;4997803;28;20064;-88
2021/11/28 04:33:15;;;;;;;;;;;;;;;0.93;100.00;98085.41;5014609;28;19929;-87
2021/11/28 04:35:43;;;;;;;;;;;;;;;1.17;100.00;98072.94;4997809;28;19925;-87
2021/11/28 04:38:11;;;;;;;;;;;;;;;1.22;100.00;98078.09;4997440;28;19976;-87
2021/11/28 04:40:40;;;;;;;;;;;;;;;0.97;100.00;98085.44;5013899;28;20609;-88
2021/11/28 04:43:08;;;;;;;;;;;;;;;1.07;100.00;98080.00;4997924;28;20376;-88
2021/11/28 04:45:35;;;;;;;;;;;;;;;1.18;100.00;98078.06;5014125;28;20360;-88
2021/11/28 04:48:05;;;;;;;;;;;;;;;1.21;100.00;98066.28;5013849;28;19930;-87
2021/11/28 04:50:36;;;;;;;;;;;;;;;1.39;100.00;98069.13;5013949;28;19976;-88
2021/11/28 04:53:04;;;;;;;;;;;;;;;1.47;100.00;98060.50;4997687;28;19935;-88
2021/11/28 04:55:31;;;;;;;;;;;;;;;1.90;100.00;98061.44;4997237;28;20016;-89
2021/11/28 04:58:00;;;;;;;;;;;;;;;1.47;100.00;98066.00;5030131;28;20012;-88
2021/11/28 05:00:27;;;;;;;;;;;;;;;1.24;100.00;98065.50;5014007;28;19952;-88
2021/11/28 05:02:58;;;;;;;;;;;;;;;1.32;100.00;98064.38;5014027;28;20291;-88
2021/11/28 05:05:28;;;;;;;;;;;;;;;1.50;100.00;98059.72;4997530;28;19976;-88
2021/11/28 05:08:24;;;;;;;;;;;;;;;1.52;100.00;98073.91;5013381;28;19925;-88
2021/11/28 05:10:52;;;;;;;;;;;;;;;1.32;100.00;98080.91;5013375;28;19926;-88
2021/11/28 05:13:20;;;;;;;;;;;;;;;1.04;100.00;98091.75;5013792;28;19979;-88
2021/11/28 05:15:47;;;;;;;;;;;;;;;0.88;100.00;98088.50;5013411;28;19932;-87
2021/11/28 05:18:41;;;;;;;;;;;;;;;0.72;100.00;98096.25;5014669;28;19933;-87
2021/11/28 05:21:30;;;;;;;;;;;;;;;0.93;100.00;98085.41;5013278;28;19925;-86
2021/11/28 05:23:58;;;;;;;;;;;;;;;0.50;100.00;98094.50;4997089;28;20008;-88
2021/11/28 05:26:27;;;;;;;;;;;;;;;0.53;100.00;98087.47;5029555;28;19925;-87
2021/11/28 05:28:55;;;;;;;;;;;;;;;0.62;100.00;98091.47;4997149;28;20032;-87
2021/11/28 05:31:22;;;;;;;;;;;;;;;0.70;100.00;98095.03;5013316;28;20004;-87
2021/11/28 05:34:08;;;;;;;;;;;;;;;0.69;100.00;98096.22;5013169;28;19925;-87
2021/11/28 05:37:07;;;;;;;;;;;;;;;1.17;100.00;98100.47;4996499;28;19932;-87
2021/11/28 05:39:38;;;;;;;;;;;;;;;0.98;100.00;98087.00;4996780;28;19925;-87
2021/11/28 05:42:06;;;;;;;;;;;;;;;0.97;100.00;98085.44;5013261;28;19936;-87
2021/11/28 05:44:33;;;;;;;;;;;;;;;0.91;100.00;98082.22;5013353;28;19926;-88
2021/11/28 05:47:20;;;;;;;;;;;;;;;1.04;100.00;98090.97;5026847;28;19929;-87
2021/11/28 05:50:22;;;;;;;;;;;;;;;1.32;100.00;98082.84;4937708;29;19933;-88
2021/11/28 05:52:51;;;;;;;;;;;;;;;1.71;100.00;98092.06;4953786;29;19982;-87
2021/11/28 05:55:20;;;;;;;;;;;;;;;1.05;100.00;98096.09;4937684;29;19933;-86
2021/11/28 05:57:51;;;;;;;;;;;;;;;1.18;100.00;98096.56;4937994;29;19927;-88
2021/11/28 06:00:21;;;;;;;;;;;;;;;1.58;100.00;98105.41;4957662;29;20405;-88
2021/11/28 06:02:52;;;;;;;;;;;;;;;1.72;100.00;98099.94;4957611;29;19933;-87
2021/11/28 06:05:38;;;;;;;;;;;;;;;1.67;100.00;98086.53;4960193;28;19926;-88
2021/11/28 06:08:17;;;;;;;;;;;;;;;2.23;100.00;98098.91;4941625;29;19934;-87
2021/11/28 06:10:46;;;;;;;;;;;;;;;2.18;100.00;98093.75;4957319;29;19927;-88
2021/11/28 06:13:15;;;;;;;;;;;;;;;2.05;100.00;98098.84;4957305;29;19926;-87
2021/11/28 06:16:00;;;;;;;;;;;;;;;1.72;100.00;98096.41;4941074;29;20025;-87
2021/11/28 06:18:51;;;;;;;;;;;;;;;2.55;100.00;98086.69;4938116;29;19927;-88
2021/11/28 06:21:37;;;;;;;;;;;;;;;1.79;100.00;98099.16;4937807;29;20013;-88
2021/11/28 06:24:14;;;;;;;;;;;;;;;2.22;100.00;98097.31;4907000;29;19931;-87
2021/11/28 06:26:46;;;;;;;;;;;;;;;2.25;100.00;98104.78;4972614;28;20332;-85
2021/11/28 06:29:18;;;;;;;;;;;;;;;1.71;100.00;98106.63;4996003;28;19925;-86
2021/11/28 06:31:51;;;;;;;;;;;;;;;2.22;100.00;98100.06;4995671;28;19925;-86
2021/11/28 06:34:22;;;;;;;;;;;;;;;1.64;100.00;98092.81;4995971;28;19966;-89
2021/11/28 06:37:24;;;;;;;;;;;;;;;1.99;100.00;98097.66;4952088;29;19926;-82
2021/11/28 06:40:21;;;;;;;;;;;;;;;1.81;100.00;98094.88;4960334;28;20289;-83
2021/11/28 06:43:11;;;;;;;;;;;;;;;1.84;100.00;98096.84;4969009;28;19990;-82
2021/11/28 06:45:39;;;;;;;;;;;;;;;1.56;100.00;98069.19;4956872;28;19927;-83
2021/11/28 06:48:07;;;;;;;;;;;;;;;2.25;100.00;98099.28;4956673;29;20038;-83
2021/11/28 06:51:00;;;;;;;;;;;;;;;2.23;100.00;98085.88;4939204;29;19933;-83
2021/11/28 06:53:32;;;;;;;;;;;;;;;2.20;100.00;98086.66;4972025;28;19926;-83
2021/11/28 06:56:38;;;;;;;;;;;;;;;1.64;100.00;98086.53;4941265;29;20369;-83
2021/11/28 06:59:06;;;;;;;;;;;;;;;1.68;100.00;98077.09;4937165;29;20022;-83
2021/11/28 07:01:40;;;;;;;;;;;;;;;1.89;100.00;98071.66;4889920;29;20370;-82
2021/11/28 07:04:22;;;;;;;;;;;;;;;1.98;100.00;98081.50;4937083;29;19969;-83
2021/11/28 07:07:08;;;;;;;;;;;;;;;1.91;100.00;98085.03;4937193;29;19962;-82
2021/11/28 07:09:37;;;;;;;;;;;;;;;1.71;100.00;98081.06;4936474;29;19927;-82
2021/11/28 07:12:05;;;;;;;;;;;;;;;2.03;100.00;98076.41;4945685;28;19994;-83
2021/11/28 07:14:35;;;;;;;;;;;;;;;1.90;100.00;98077.94;5031862;28;20628;-83
2021/11/28 07:17:03;;;;;;;;;;;;;;;1.75;100.00;98068.09;5015151;28;20004;-83
2021/11/28 07:19:35;;;;;;;;;;;;;;;2.24;100.00;98068.19;5031088;28;20674;-83
2021/11/28 07:22:22;;;;;;;;;;;;;;;2.13;100.00;98053.59;5031705;28;19929;-82
2021/11/28 07:24:52;;;;;;;;;;;;;;;2.35;100.00;98068.19;5015341;28;20368;-83
2021/11/28 07:27:19;;;;;;;;;;;;;;;2.06;100.00;98066.59;5015256;28;20387;-82
2021/11/28 07:29:48;;;;;;;;;;;;;;;2.57;100.00;98061.47;5014964;28;19926;-83
2021/11/28 07:32:16;;;;;;;;;;;;;;;2.23;100.00;98074.84;5014954;28;20288;-82
2021/11/28 07:35:13;;;;;;;;;;;;;;;1.88;100.00;98064.56;4977995;28;19948;-83
2021/11/28 07:37:40;;;;;;;;;;;;;;;1.99;100.00;98066.53;4994307;28;19930;-83
2021/11/28 07:40:08;;;;;;;;;;;;;;;2.28;100.00;98068.16;4977786;28;19981;-83
2021/11/28 07:42:41;;;;;;;;;;;;;;;2.23;100.00;98072.09;4994114;28;20024;-83
2021/11/28 07:45:41;;;;;;;;;;;;;;;2.03;100.00;98081.13;4955458;29;19933;-82
2021/11/28 07:48:32;;;;;;;;;;;;;;;1.88;100.00;98092.13;4965768;28;20545;-82
2021/11/28 07:51:11;;;;;;;;;;;;;;;2.42;100.00;98093.00;4955357;29;19926;-83
2021/11/28 07:53:39;;;;;;;;;;;;;;;2.58;100.00;98082.34;4971635;28;19938;-83
2021/11/28 07:56:07;;;;;;;;;;;;;;;2.23;100.00;98107.16;4971474;28;19926;-83
2021/11/28 07:58:53;;;;;;;;;;;;;;;3.02;100.00;98094.53;4936594;29;20033;-83
2021/11/28 08:01:24;;;;;;;;;;;;;;;2.72;100.00;98085.13;4939181;29;19957;-84
2021/11/28 08:04:11;;;;;;;;;;;;;;;3.29;100.00;98103.16;4954907;28;20440;-84
2021/11/28 08:06:59;;;;;;;;;;;;;;;2.84;100.00;98109.53;4938850;29;20412;-84
2021/11/28 08:10:01;;;;;;;;;;;;;;;2.09;100.00;98102.38;4950092;29;20046;-82
2021/11/28 08:12:28;;;;;;;;;;;;;;;1.93;100.00;98110.22;4954995;29;19934;-82
2021/11/28 08:14:56;;;;;;;;;;;;;;;2.07;100.00;98109.47;4955039;29;19957;-82
2021/11/28 08:17:23;;;;;;;;;;;;;;;2.17;100.00;98114.22;4938852;29;19943;-82
2021/11/28 08:19:50;;;;;;;;;;;;;;;2.20;100.00;98107.91;4938514;29;20473;-82
2021/11/28 08:22:24;;;;;;;;;;;;;;;2.19;100.00;98103.59;4939452;29;20038;-82
2021/11/28 08:24:52;;;;;;;;;;;;;;;2.31;100.00;98105.97;4957459;29;20425;-82
2021/11/28 08:27:19;;;;;;;;;;;;;;;2.73;100.00;98103.22;4957034;29;19927;-82
2021/11/28 08:29:47;;;;;;;;;;;;;;;2.43;100.00;98105.59;4941641;29;19927;-79
2021/11/28 08:32:33;;;;;;;;;;;;;;;2.53;100.00;98102.06;4959705;29;19926;-82
2021/11/28 08:35:19;;;;;;;;;;;;;;;3.12;100.00;98092.94;4961253;29;20333;-88
2021/11/28 08:37:47;;;;;;;;;;;;;;;3.46;100.00;98091.28;4937169;28;19934;-88
2021/11/28 08:40:17;;;;;;;;;;;;;;;3.59;100.00;98089.63;4951416;28;20418;-87
2021/11/28 08:42:44;;;;;;;;;;;;;;;3.85;100.00;98075.31;4950603;28;20012;-87
2021/11/28 08:45:11;;;;;;;;;;;;;;;4.49;100.00;98070.94;5032493;28;19932;-87
2021/11/28 08:47:40;;;;;;;;;;;;;;;4.50;100.00;98061.44;5033365;28;19929;-83
2021/11/28 08:50:08;;;;;;;;;;;;;;;4.29;100.00;98067.13;5016861;28;19932;-83
2021/11/28 08:52:36;;;;;;;;;;;;;;;4.49;100.00;98062.66;5033198;28;20071;-81
2021/11/28 08:55:04;;;;;;;;;;;;;;;4.46;100.00;98062.66;5017047;28;19940;-83
2021/11/28 08:57:35;;;;;;;;;;;;;;;4.12;100.00;98062.50;5016637;28;19925;-83
2021/11/28 09:00:04;;;;;;;;;;;;;;;3.02;100.00;98069.69;5050643;28;19925;-84
2021/11/28 09:02:31;;;;;;;;;;;;;;;2.99;100.00;98067.75;5033679;28;19932;-84
2021/11/28 09:04:59;;;;;;;;;;;;;;;2.67;100.00;98069.75;5033831;28;19931;-83
2021/11/28 09:11:32;;;;;;;;;;;;;;;2.89;100.00;98071.28;5039360;28;19956;-82
2021/11/28 09:14:00;;;;;;;;;;;;;;;2.87;100.00;98072.88;5046699;28;19925;-81
2021/11/28 09:16:27;;;;;;;;;;;;;;;3.17;100.00;98085.03;5013958;28;19932;-83
2021/11/28 09:19:02;;;;;;;;;;;;;;;3.97;100.00;98074.84;5031296;28;19925;-83
2021/11/28 09:21:29;;;;;;;;;;;;;;;4.08;100.00;98083.06;5030021;28;20546;-85
2021/11/28 09:26:43;;;;;;;;;;;;;;;5.10;100.00;98067.22;5030909;28;20665;-80
2021/11/28 09:29:10;;;;;;;;;;;;;;;4.66;100.00;98067.25;5030690;28;19932;-81
2021/11/28 09:31:37;;;;;;;;;;;;;;;4.95;100.00;98065.03;5031337;28;19925;-80
2021/11/28 09:34:05;;;;;;;;;;;;;;;4.74;100.00;98054.91;5011080;28;19929;-80
2021/11/28 09:36:32;;;;;;;;;;;;;;;5.22;100.00;98063.94;5009851;28;19968;-80
2021/11/28 09:39:00;;;;;;;;;;;;;;;5.68;100.00;98063.38;5026782;28;19926;-81
2021/11/28 09:41:31;;;;;;;;;;;;;;;4.74;99.14;98062.44;5038230;28;19925;-80
2021/11/28 09:44:03;;;;;;;;;;;;;;;4.38;100.00;98069.44;5049998;28;19929;-80
2021/11/28 09:46:30;;;;;;;;;;;;;;;5.12;100.00;98069.56;5051406;28;19925;-80
2021/11/28 09:49:01;;;;;;;;;;;;;;;4.75;100.00;98070.34;5050742;28;19928;-80
2021/11/28 09:51:28;;;;;;;;;;;;;;;4.22;100.00;98069.97;5039576;28;20346;-80
2021/11/28 09:53:59;;;;;;;;;;;;;;;3.89;100.00;98070.56;5032884;28;19978;-80
2021/11/28 09:56:27;;;;;;;;;;;;;;;4.02;100.00;98068.91;5049821;28;19925;-80
2021/11/28 09:58:55;;;;;;;;;;;;;;;4.90;100.00;98062.69;5038429;28;19933;-80
2021/11/28 10:01:22;;;;;;;;;;;;;;;4.47;100.00;98048.44;5027576;28;19968;-80
2021/11/28 10:03:49;;;;;;;;;;;;;;;4.52;100.00;98058.28;5031404;28;19925;-79
2021/11/28 10:06:17;;;;;;;;;;;;;;;4.84;100.00;98061.56;5049617;28;19932;-80
2021/11/28 10:08:44;;;;;;;;;;;;;;;4.56;100.00;98054.28;5048831;28;19932;-79
2021/11/28 10:11:16;;;;;;;;;;;;;;;4.41;100.00;98061.13;5033657;28;19925;-79
2021/11/28 10:13:44;;;;;;;;;;;;;;;5.00;100.00;98057.03;5020896;28;19932;-80
2021/11/28 10:16:11;;;;;;;;;;;;;;;4.56;100.00;98059.81;5037339;28;19925;-79
2021/11/28 10:18:39;;;;;;;;;;;;;;;4.77;100.00;98054.09;5038539;28;19936;-79
2021/11/28 10:21:06;;;;;;;;;;;;;;;4.39;100.00;98049.66;5039074;28;19929;-80
2021/11/28 10:23:33;;;;;;;;;;;;;;;4.16;100.00;98056.97;5047190;28;19925;-80
2021/11/28 10:26:13;;;;;;;;;;;;;;;4.03;100.00;98053.88;5031030;28;19976;-80
2021/11/28 10:28:59;;;;;;;;;;;;;;;3.59;100.00;98045.44;5011642;28;19925;-82
2021/11/28 10:31:27;;;;;;;;;;;;;;;3.54;100.00;98059.69;5029386;28;19933;-80
2021/11/28 10:34:12;;;;;;;;;;;;;;;3.87;100.00;98056.34;5030497;28;19933;-80
2021/11/28 10:36:39;;;;;;;;;;;;;;;4.04;100.00;98041.66;5047171;28;19926;-80
2021/11/28 10:39:14;;;;;;;;;;;;;;;4.04;100.00;98043.63;5000306;28;19991;-80
2021/11/28 10:41:46;;;;;;;;;;;;;;;4.64;100.00;98044.75;5013475;28;20369;-79
2021/11/28 10:44:13;;;;;;;;;;;;;;;4.71;100.00;98039.13;5032949;28;20343;-78
2021/11/28 10:46:41;;;;;;;;;;;;;;;4.45;100.00;98025.94;5039264;28;19932;-80
2021/11/28 10:49:13;;;;;;;;;;;;;;;4.63;100.00;98026.56;5049295;28;20547;-77
2021/11/28 10:51:45;;;;;;;;;;;;;;;5.17;100.00;98022.84;5063377;28;20075;-78
2021/11/28 10:54:30;;;;;;;;;;;;;;;5.44;100.00;98012.63;5024168;28;19935;-80
2021/11/28 10:57:07;;;;;;;;;;;;;;;5.06;100.00;98019.41;5057989;28;20562;-87
2021/11/28 10:59:38;;;;;;;;;;;;;;;5.10;100.00;98017.38;5033624;28;20359;-82
2021/11/28 11:02:18;;;;;;;;;;;;;;;5.23;100.00;98023.97;5032204;28;19929;-81
2021/11/28 11:04:45;;;;;;;;;;;;;;;5.46;100.00;98021.31;5032080;28;19932;-81
2021/11/28 11:07:13;;;;;;;;;;;;;;;5.34;100.00;98012.78;5034920;28;19925;-81
2021/11/28 11:09:44;;;;;;;;;;;;;;;5.46;100.00;98007.47;5036421;28;19925;-82
2021/11/28 11:12:21;;;;;;;;;;;;;;;5.86;100.00;98011.31;5036170;28;19933;-80
2021/11/28 11:14:53;;;;;;;;;;;;;;;5.52;100.00;97993.94;5035661;28;20289;-80
2021/11/28 11:17:24;;;;;;;;;;;;;;;5.85;100.00;97995.09;5048084;28;19932;-80
2021/11/28 11:19:51;;;;;;;;;;;;;;;5.81;99.71;97992.34;5056337;28;20351;-80
2021/11/28 11:22:22;;;;;;;;;;;;;;;5.33;97.83;97998.13;5055096;28;19947;-80
2021/11/28 11:24:53;;;;;;;;;;;;;;;5.39;95.35;97988.16;5071672;28;19925;-79
2021/11/28 11:27:31;;;;;;;;;;;;;;;5.55;95.71;97982.81;5055807;28;20437;-80
2021/11/28 11:30:06;;;;;;;;;;;;;;;5.53;93.27;97990.75;5056146;28;19925;-80
2021/11/28 11:32:48;;;;;;;;;;;;;;;5.97;94.22;97987.00;5056434;28;19925;-80
2021/11/28 11:35:16;;;;;;;;;;;;;;;5.52;92.92;97989.19;5054878;28;19925;-79
2021/11/28 11:37:44;;;;;;;;;;;;;;;4.87;93.23;97986.81;5071277;28;20024;-79
2021/11/28 11:40:13;;;;;;;;;;;;;;;4.49;94.49;97987.97;5038309;28;19925;-79
2021/11/28 11:42:42;;;;;;;;;;;;;;;5.23;96.32;97998.25;5055817;28;19925;-79
2021/11/28 11:45:10;;;;;;;;;;;;;;;4.96;98.46;98003.72;5056095;28;19924;-79
2021/11/28 11:47:39;;;;;;;;;;;;;;;4.59;100.00;98008.44;5055813;28;19936;-79
2021/11/28 11:50:09;;;;;;;;;;;;;;;3.92;100.00;98017.25;5055611;28;19928;-79
2021/11/28 11:52:37;;;;;;;;;;;;;;;3.50;100.00;98025.75;5054446;28;19929;-79
2021/11/28 11:55:07;;;;;;;;;;;;;;;3.77;100.00;98024.06;5055375;28;20367;-79
2021/11/28 11:57:55;;;;;;;;;;;;;;;3.47;100.00;98029.31;5054234;28;20344;-78
2021/11/28 12:00:28;;;;;;;;;;;;;;;3.20;100.00;98042.03;5043756;28;19925;-79
2021/11/28 12:02:56;;;;;;;;;;;;;;;3.02;100.00;98038.56;5054310;28;19931;-78
2021/11/28 12:05:34;;;;;;;;;;;;;;;2.99;100.00;98036.59;5054304;28;20438;-79
2021/11/28 12:08:16;;;;;;;;;;;;;;;3.00;100.00;98038.19;5037579;28;19925;-79
2021/11/28 12:10:52;;;;;;;;;;;;;;;2.96;100.00;98046.47;5054977;28;19925;-78
2021/11/28 12:13:25;;;;;;;;;;;;;;;3.06;100.00;98050.38;5054067;28;19932;-79
2021/11/28 12:16:07;;;;;;;;;;;;;;;2.89;100.00;98042.94;5054101;28;19931;-79
2021/11/28 12:18:35;;;;;;;;;;;;;;;2.72;100.00;98054.78;5053861;28;20003;-79
2021/11/28 12:21:06;;;;;;;;;;;;;;;3.21;100.00;98044.41;5037166;28;19931;-79
2021/11/28 12:23:46;;;;;;;;;;;;;;;3.88;100.00;98055.16;5053661;28;19924;-79
2021/11/28 12:26:33;;;;;;;;;;;;;;;4.28;100.00;98059.25;5055037;28;19947;-80
2021/11/28 12:29:03;;;;;;;;;;;;;;;4.45;100.00;98053.59;5053837;28;19925;-79
2021/11/28 12:31:32;;;;;;;;;;;;;;;4.21;100.00;98040.72;5054079;28;20355;-79
2021/11/28 12:34:02;;;;;;;;;;;;;;;4.12;100.00;98045.91;5051631;28;19925;-79
2021/11/28 12:37:18;;;;;;;;;;;;;;;4.30;100.00;98034.75;5089731;28;19916;-80
2021/11/28 12:39:46;;;;;;;;;;;;;;;4.10;100.00;98036.47;5086577;28;19970;-80
2021/11/28 12:42:19;;;;;;;;;;;;;;;4.01;100.00;98044.44;5083443;28;19928;-79
2021/11/28 12:44:49;;;;;;;;;;;;;;;4.42;100.00;98037.81;5082206;28;19932;-81
2021/11/28 12:47:16;;;;;;;;;;;;;;;4.98;100.00;98031.75;5077208;28;19958;-77
2021/11/28 12:49:57;;;;;;;;;;;;;;;4.85;100.00;98025.16;5078384;28;20414;-77
2021/11/28 12:52:35;;;;;;;;;;;;;;;5.16;100.00;98032.38;5086887;28;20322;-75
2021/11/28 12:55:02;;;;;;;;;;;;;;;5.28;100.00;98022.72;5087386;28;19924;-77
2021/11/28 12:57:30;;;;;;;;;;;;;;;5.59;100.00;98025.09;5093544;28;19954;-77
2021/11/28 13:00:09;;;;;;;;;;;;;;;5.53;100.00;98015.69;5082233;28;20425;-76
2021/11/28 13:02:57;;;;;;;;;;;;;;;5.33;100.00;98006.44;5087211;28;19931;-77
2021/11/28 13:05:31;;;;;;;;;;;;;;;5.67;100.00;98002.84;5087685;28;20015;-77
2021/11/28 13:08:04;;;;;;;;;;;;;;;5.59;100.00;98000.16;5085022;28;19934;-76
2021/11/28 13:10:36;;;;;;;;;;;;;;;5.75;100.00;98004.31;5078484;28;19924;-77
2021/11/28 13:13:07;;;;;;;;;;;;;;;5.97;100.00;97991.78;5066479;28;20353;-77
2021/11/28 13:15:38;;;;;;;;;;;;;;;5.98;100.00;97993.34;5049230;28;19931;-76
2021/11/28 13:18:08;;;;;;;;;;;;;;;5.39;100.00;97979.84;5067073;28;19975;-78
2021/11/28 13:21:02;;;;;;;;;;;;;;;4.68;100.00;97983.84;5054178;28;19928;-77
2021/11/28 13:23:50;;;;;;;;;;;;;;;4.52;100.00;97992.69;5076486;28;19925;-76
2021/11/28 13:26:37;;;;;;;;;;;;;;;4.93;100.00;97995.44;5086851;28;19925;-74